Portada
METAR-TAF:

METAR-TAF

Aeroports :

Farnborough, Anglaterra

latitud: 51-17N, longitud: 000-46W, altitud: 65 m

Observació

L'informe es va fer fa 33 minuts, a les 15:20 UTC
Vent 17 kt del Oest/Sud-Oest
Temperatura 5°C
Humitat 75%
Pressió 997 hPa
Visibilitat 10 km o més

METAR: EGLF 281520Z AUTO 24017KT 9999 FEW024/// 05/01 Q0997

Hora: 15:53 (15:53 UTC)

Pronòstic

L'informe es va fer fa 1 hora i 51 minuts, a les 14:02 UTC
Pronòstic vàlid del 28 a les 15 UTC al 28 a les 23 UTC
Vent 13 kt del Oest
Visibilitat 10 km o més
Núvols disperses a una alçada de 3000 ft
Probabilitat 30% :
Temporalment
l' 28 a les 15 UTC al 28 a les 18 UTC
Vent 15 kt del Oest amb ràfegues de 25 kt
Visibilitat: 8000 m
xàfecs de pluja

TAF: EGLF 281402Z 2815/2823 26013KT 9999 SCT030 PROB30 TEMPO 2815/2818 26015G25KT 8000 -SHRA

Observacions i pronòstics meteorològics de més de 4000 aeroports (METAR i TAF).

Les estacions disponibles són els punts grocs i vermells al mapa.

Posi el ratolí al punt desitjat per veure el nom de l'estació.

Feu clic per veure les observacions i els pronòstics meteorològics.

Per canviar el mapa: feu clic els botons verds amb una creu de color negre per apropar; al botó verd amb un guió per allunyar la imatge; o en les fletxes verdes per a mapes adjacents.


METAR-TAF: